Time;durP1;ratioP1;P1;durP2;ratioP2;P2;SDS_P1;SDS_P2;PMS_P1;PMS_P2;Temp;Humidity;BMP_temperature;BMP_pressure;BME280_temperature;BME280_humidity;BME280_pressure;Samples;Min_cycle;Max_cycle;Signal;HPM_P1;HPM_P2
2022/01/14 00:00:37;;;;;;;43.38;26.30;;;2.30;99.90;;;;;;5039886;28;20037;-88
2022/01/14 00:03:03;;;;;;;41.47;24.67;;;2.30;99.90;;;;;;5038764;28;20273;-87
2022/01/14 00:05:29;;;;;;;45.67;26.05;;;2.30;99.90;;;;;;5038827;28;20121;-87
2022/01/14 00:07:54;;;;;;;47.40;26.92;;;2.30;99.90;;;;;;5039537;28;20031;-90
2022/01/14 00:10:20;;;;;;;49.08;27.08;;;2.30;99.90;;;;;;5036457;28;20037;-87
2022/01/14 00:12:52;;;;;;;48.20;26.35;;;2.30;99.90;;;;;;5042008;28;20329;-87
2022/01/14 00:15:26;;;;;;;45.22;26.05;;;2.20;99.90;;;;;;5033888;28;20381;-86
2022/01/14 00:17:52;;;;;;;;;;;2.20;99.90;;;;;;5030518;28;20018;-87
2022/01/14 00:20:19;;;;;;;45.05;25.80;;;2.20;99.90;;;;;;5038050;28;19901;-87
2022/01/14 00:22:45;;;;;;;48.03;26.33;;;2.20;99.90;;;;;;5040829;28;20320;-87
2022/01/14 00:33:09;;;;;;;45.17;26.77;;;2.10;99.90;;;;;;5042333;28;20088;-87
2022/01/14 00:35:42;;;;;;;49.78;28.63;;;2.00;99.90;;;;;;5042353;28;20045;-87
2022/01/14 00:38:12;;;;;;;51.27;28.40;;;2.00;99.90;;;;;;5036456;28;20013;-87
2022/01/14 00:40:38;;;;;;;47.75;27.42;;;2.10;99.90;;;;;;5035329;28;20260;-87
2022/01/14 00:43:04;;;;;;;52.92;28.45;;;2.00;99.90;;;;;;5042275;28;20056;-87
2022/01/14 00:45:30;;;;;;;43.28;26.88;;;2.00;99.90;;;;;;5037367;28;20206;-87
2022/01/14 00:47:56;;;;;;;46.53;26.70;;;2.00;99.90;;;;;;5042396;28;20018;-87
2022/01/14 00:50:22;;;;;;;43.63;25.90;;;2.00;99.90;;;;;;5040952;28;20040;-87
2022/01/14 00:52:48;;;;;;;45.13;27.13;;;2.00;99.90;;;;;;5033937;28;20028;-86
2022/01/14 00:55:18;;;;;;;43.30;26.27;;;2.00;99.90;;;;;;5041310;28;20049;-87
2022/01/14 01:00:28;;;;;;;47.25;27.15;;;2.00;99.90;;;;;;5041449;28;20026;-87
2022/01/14 01:02:54;;;;;;;47.45;25.80;;;1.90;99.90;;;;;;5041075;28;20013;-87
2022/01/14 01:05:20;;;;;;;45.05;26.45;;;1.90;99.90;;;;;;5039397;28;20017;-87
2022/01/14 01:07:54;;;;;;;47.72;28.02;;;1.90;99.90;;;;;;5035620;28;20470;-86
2022/01/14 01:10:20;;;;;;;46.22;27.73;;;1.90;99.90;;;;;;5042189;28;20041;-86
2022/01/14 01:15:15;;;;;;;45.05;26.75;;;1.90;99.90;;;;;;5041450;28;20045;-87
2022/01/14 01:17:41;;;;;;;46.58;27.70;;;1.90;99.90;;;;;;5041708;28;20245;-87
2022/01/14 01:20:13;;;;;;;47.20;28.00;;;1.80;99.90;;;;;;5039877;28;20257;-87
2022/01/14 01:22:40;;;;;;;45.92;27.30;;;1.80;99.90;;;;;;5041422;28;20054;-86
2022/01/14 01:25:07;;;;;;;48.33;27.52;;;1.80;99.90;;;;;;5041380;28;20020;-87
2022/01/14 01:27:38;;;;;;;51.53;29.13;;;1.80;99.90;;;;;;5041391;28;20036;-87
2022/01/14 01:33:02;;;;;;;46.70;26.52;;;1.80;99.90;;;;;;5032611;28;20061;-87
2022/01/14 01:35:29;;;;;;;44.63;26.38;;;1.80;99.90;;;;;;5039913;28;20104;-87
2022/01/14 01:37:55;;;;;;;47.22;26.98;;;1.70;99.90;;;;;;5040882;28;20036;-87
2022/01/14 01:40:22;;;;;;;48.45;27.88;;;1.70;99.90;;;;;;5040458;28;20022;-87
2022/01/14 01:42:48;;;;;;;46.92;27.92;;;1.70;99.90;;;;;;5040118;28;20312;-87
2022/01/14 01:45:21;;;;;;;45.22;26.13;;;1.80;99.90;;;;;;5041544;28;20021;-87
2022/01/14 01:47:50;;;;;;;43.90;25.05;;;1.70;99.90;;;;;;5041091;28;20017;-87
2022/01/14 01:50:19;;;;;;;44.63;25.75;;;1.70;99.90;;;;;;5040019;28;20217;-87
2022/01/14 01:52:45;;;;;;;43.97;25.38;;;1.70;99.90;;;;;;5039079;28;20017;-87
2022/01/14 01:55:12;;;;;;;43.95;25.98;;;1.70;99.90;;;;;;5039419;28;20041;-87
2022/01/14 01:57:38;;;;;;;42.65;25.52;;;1.70;99.90;;;;;;5041369;28;20071;-86
2022/01/14 02:00:08;;;;;;;43.50;25.70;;;1.70;99.90;;;;;;5041178;28;20021;-87
2022/01/14 02:02:36;;;;;;;43.78;26.55;;;1.70;99.90;;;;;;5039588;28;20017;-87
2022/01/14 02:05:02;;;;;;;43.45;25.63;;;1.70;99.90;;;;;;5040928;28;20017;-87
2022/01/14 02:07:28;;;;;;;42.35;25.42;;;1.70;99.90;;;;;;5039712;28;20017;-88
2022/01/14 02:09:53;;;;;;;43.83;26.42;;;1.70;99.90;;;;;;5039669;28;20198;-87
2022/01/14 02:12:20;;;;;;;44.53;25.95;;;1.70;99.90;;;;;;5037578;28;20088;-94
2022/01/14 02:17:46;;;;;;;;;;;1.60;99.90;;;;;;5041963;28;20328;-87
2022/01/14 02:23:02;;;;;;;43.70;25.88;;;1.60;99.90;;;;;;5041625;28;20393;-89
2022/01/14 02:25:29;;;;;;;50.80;25.88;;;1.70;99.90;;;;;;5040024;28;20099;-87
2022/01/14 02:28:20;;;;;;;41.85;25.35;;;1.70;99.90;;;;;;5043042;28;20032;-87
2022/01/14 02:30:48;;;;;;;44.97;25.73;;;1.60;99.90;;;;;;5044802;28;20213;-87
2022/01/14 02:33:16;;;;;;;40.80;24.85;;;1.60;99.90;;;;;;5039352;28;20057;-87
2022/01/14 02:35:44;;;;;;;42.88;25.80;;;1.60;99.90;;;;;;5043448;28;20037;-87
2022/01/14 02:38:12;;;;;;;43.13;23.65;;;1.60;99.90;;;;;;5044365;28;20081;-86
2022/01/14 02:40:38;;;;;;;46.03;25.30;;;1.60;99.90;;;;;;5043219;28;20025;-87
2022/01/14 02:43:06;;;;;;;44.28;25.38;;;1.60;99.90;;;;;;5043255;28;20248;-87
2022/01/14 02:45:34;;;;;;;42.22;24.98;;;1.60;99.90;;;;;;5037509;28;20217;-87
2022/01/14 02:48:01;;;;;;;41.90;24.58;;;1.60;99.90;;;;;;5037924;28;20032;-87
2022/01/14 02:50:35;;;;;;;42.95;24.70;;;1.60;99.90;;;;;;5037760;28;20029;-87
2022/01/14 02:53:03;;;;;;;43.08;24.60;;;1.60;99.90;;;;;;5042785;28;20092;-87
2022/01/14 02:55:31;;;;;;;39.20;24.40;;;1.60;99.90;;;;;;5043566;28;20033;-87
2022/01/14 02:57:58;;;;;;;43.13;24.17;;;1.50;99.90;;;;;;5043980;28;20009;-87
2022/01/14 03:00:31;;;;;;;41.60;24.13;;;1.50;99.90;;;;;;5043529;28;20075;-87
2022/01/14 03:02:59;;;;;;;43.55;24.95;;;1.50;99.90;;;;;;5044219;28;20014;-87
2022/01/14 03:05:27;;;;;;;41.47;24.67;;;1.50;99.90;;;;;;5042694;28;20105;-87
2022/01/14 03:07:53;;;;;;;39.30;23.92;;;1.50;99.90;;;;;;5042185;28;20031;-87
2022/01/14 03:10:19;;;;;;;41.40;24.92;;;1.50;99.90;;;;;;5043945;28;20013;-87
2022/01/14 03:12:45;;;;;;;40.67;23.70;;;1.50;99.90;;;;;;5042436;28;20048;-87
2022/01/14 03:15:13;;;;;;;39.42;23.85;;;1.50;99.90;;;;;;5043056;28;20075;-87
2022/01/14 03:17:39;;;;;;;42.53;23.98;;;1.40;99.90;;;;;;5041913;28;20251;-87
2022/01/14 03:20:08;;;;;;;42.22;24.90;;;1.50;99.90;;;;;;5042195;28;20060;-86
2022/01/14 03:22:36;;;;;;;40.90;23.58;;;1.50;99.90;;;;;;5043165;28;20013;-87
2022/01/14 03:27:52;;;;;;;41.00;24.45;;;1.40;99.90;;;;;;5043045;28;20079;-86
2022/01/14 03:30:18;;;;;;;44.55;24.13;;;1.40;99.90;;;;;;5042411;28;20020;-87
2022/01/14 03:32:44;;;;;;;42.22;24.10;;;1.40;99.90;;;;;;5044067;28;20342;-87
2022/01/14 03:35:12;;;;;;;45.72;25.40;;;1.40;99.90;;;;;;5043805;28;20045;-87
2022/01/14 03:37:39;;;;;;;42.65;23.92;;;1.40;99.90;;;;;;5038914;28;20485;-87
2022/01/14 03:40:07;;;;;;;43.03;24.77;;;1.30;99.90;;;;;;5042741;28;20130;-87
2022/01/14 03:42:33;;;;;;;45.40;24.90;;;1.30;99.90;;;;;;5041644;28;20014;-87
2022/01/14 03:44:59;;;;;;;43.88;26.25;;;1.20;99.90;;;;;;5043220;28;20325;-87
2022/01/14 03:47:25;;;;;;;40.55;24.75;;;1.20;99.90;;;;;;5042235;28;20021;-87
2022/01/14 03:49:51;;;;;;;45.50;26.45;;;1.20;99.90;;;;;;5041975;28;20044;-87
2022/01/14 03:52:17;;;;;;;45.47;25.50;;;1.20;99.90;;;;;;5043256;28;20025;-87
2022/01/14 03:54:44;;;;;;;42.45;24.75;;;1.20;99.90;;;;;;5042853;28;20029;-87
2022/01/14 03:57:09;;;;;;;42.53;24.33;;;1.20;99.90;;;;;;5041211;28;20333;-87
2022/01/14 03:59:35;;;;;;;43.17;24.83;;;1.20;99.90;;;;;;5042187;28;20040;-87
2022/01/14 04:02:01;;;;;;;43.03;24.35;;;1.20;99.90;;;;;;5042790;28;20018;-86
2022/01/14 04:04:27;;;;;;;44.42;25.42;;;1.20;99.90;;;;;;5042265;28;20033;-87
2022/01/14 04:06:52;;;;;;;42.75;24.80;;;1.20;99.90;;;;;;5042936;28;20081;-87
2022/01/14 04:09:18;;;;;;;44.13;25.65;;;1.10;99.90;;;;;;5035945;28;20025;-87
2022/01/14 04:11:45;;;;;;;43.60;24.70;;;1.10;99.90;;;;;;5040603;28;20222;-87
2022/01/14 04:16:49;;;;;;;43.22;26.30;;;1.10;99.90;;;;;;5042027;28;20029;-87
2022/01/14 04:19:14;;;;;;;44.47;25.67;;;1.10;99.90;;;;;;5042623;28;20022;-87
2022/01/14 04:21:40;;;;;;;43.80;25.55;;;1.10;99.90;;;;;;5041943;28;20029;-87
2022/01/14 04:24:06;;;;;;;47.25;26.05;;;1.10;99.90;;;;;;5036351;28;20017;-87
2022/01/14 04:26:31;;;;;;;42.58;26.40;;;1.10;99.90;;;;;;5040933;28;20194;-87
2022/01/14 04:28:57;;;;;;;46.75;25.88;;;1.10;99.90;;;;;;5042198;28;20022;-87
2022/01/14 04:31:23;;;;;;;45.15;26.02;;;1.10;99.90;;;;;;5042529;28;20363;-87
2022/01/14 04:33:49;;;;;;;41.95;26.17;;;1.10;99.90;;;;;;5041037;28;20049;-87
2022/01/14 04:36:15;;;;;;;44.55;26.90;;;1.10;99.90;;;;;;5042108;28;20052;-87
2022/01/14 04:38:40;;;;;;;43.28;26.75;;;1.10;99.90;;;;;;5041304;28;20051;-87
2022/01/14 04:41:06;;;;;;;46.00;25.98;;;1.10;99.90;;;;;;5041091;28;20389;-87
2022/01/14 04:43:32;;;;;;;45.67;26.58;;;1.10;99.90;;;;;;5041785;28;20026;-87
2022/01/14 04:48:33;;;;;;;43.13;25.90;;;1.10;99.90;;;;;;5042084;28;20314;-87
2022/01/14 04:50:59;;;;;;;43.28;25.00;;;1.00;99.90;;;;;;5042010;28;20044;-87
2022/01/14 04:53:26;;;;;;;49.13;27.25;;;1.00;99.90;;;;;;5041492;28;20039;-86
2022/01/14 04:55:54;;;;;;;44.75;26.60;;;1.00;99.90;;;;;;5040013;28;20033;-87
2022/01/14 04:58:20;;;;;;;45.38;26.92;;;1.00;99.90;;;;;;5039968;28;20101;-87
2022/01/14 05:00:45;;;;;;;43.92;27.42;;;1.00;99.90;;;;;;5039940;28;20044;-87
2022/01/14 05:03:11;;;;;;;46.08;25.77;;;1.00;99.90;;;;;;5041872;28;20029;-87
2022/01/14 05:05:40;;;;;;;45.90;25.42;;;1.00;99.90;;;;;;5040839;28;20089;-87
2022/01/14 05:08:11;;;;;;;45.15;26.35;;;1.00;99.90;;;;;;5039587;28;20032;-87
2022/01/14 05:10:59;;;;;;;44.28;25.25;;;0.90;99.90;;;;;;5041531;28;20087;-86
2022/01/14 05:13:24;;;;;;;42.85;26.20;;;0.90;99.90;;;;;;5040960;28;20088;-87
2022/01/14 05:15:50;;;;;;;43.40;26.10;;;0.90;99.90;;;;;;5039932;28;20028;-86
2022/01/14 05:18:16;;;;;;;44.35;25.20;;;0.90;99.90;;;;;;5039875;28;20025;-86
2022/01/14 05:20:42;;;;;;;47.47;26.35;;;0.90;99.90;;;;;;5042109;28;20063;-87
2022/01/14 05:23:08;;;;;;;46.72;27.58;;;0.90;99.90;;;;;;5040863;28;20024;-87
2022/01/14 05:25:33;;;;;;;43.45;25.88;;;0.80;99.90;;;;;;5039648;28;20017;-87
2022/01/14 05:27:59;;;;;;;45.60;27.17;;;0.90;99.90;;;;;;5041038;28;20245;-87
2022/01/14 05:30:25;;;;;;;44.25;26.70;;;0.80;99.90;;;;;;5039532;28;20024;-87
2022/01/14 05:32:53;;;;;;;46.55;27.88;;;0.80;99.90;;;;;;5036270;28;20345;-87
2022/01/14 05:35:25;;;;;;;45.70;27.17;;;0.80;99.90;;;;;;5040993;28;20067;-87
2022/01/14 05:37:52;;;;;;;45.22;26.70;;;0.80;99.90;;;;;;5040673;28;20018;-87
2022/01/14 05:40:19;;;;;;;47.75;26.98;;;0.80;99.90;;;;;;5040434;28;20029;-87
2022/01/14 05:42:45;;;;;;;44.53;26.70;;;0.80;99.90;;;;;;5040173;28;20025;-87
2022/01/14 05:45:13;;;;;;;43.08;27.55;;;0.80;99.90;;;;;;5041053;28;20072;-87
2022/01/14 05:47:39;;;;;;;45.50;27.35;;;0.80;99.90;;;;;;5039597;28;20017;-87
2022/01/14 05:50:09;;;;;;;44.40;26.55;;;0.80;99.90;;;;;;5040522;28;20026;-87
2022/01/14 05:52:35;;;;;;;42.80;25.95;;;0.80;99.90;;;;;;5040543;28;20021;-86
2022/01/14 05:55:01;;;;;;;46.63;27.48;;;0.70;99.90;;;;;;5040445;28;20057;-87
2022/01/14 05:57:27;;;;;;;43.42;25.90;;;0.70;99.90;;;;;;5040957;28;20213;-87
2022/01/14 05:59:53;;;;;;;49.45;26.23;;;0.70;99.90;;;;;;5040078;28;20032;-86
2022/01/14 06:02:19;;;;;;;46.22;27.58;;;0.70;99.90;;;;;;5040888;28;20067;-87
2022/01/14 06:04:45;;;;;;;45.20;27.52;;;0.70;99.90;;;;;;5040443;28;20313;-87
2022/01/14 06:07:11;;;;;;;46.05;27.42;;;0.70;99.90;;;;;;5039286;28;20348;-87
2022/01/14 06:09:36;;;;;;;45.90;28.20;;;0.70;99.90;;;;;;5037114;28;20187;-86
2022/01/14 06:12:03;;;;;;;42.78;25.45;;;0.60;99.90;;;;;;5040957;28;20041;-88
2022/01/14 06:14:29;;;;;;;49.28;27.63;;;0.60;99.90;;;;;;5039806;28;20237;-88
2022/01/14 06:16:54;;;;;;;49.53;27.60;;;0.60;99.90;;;;;;5033294;28;20029;-87
2022/01/14 06:19:20;;;;;;;44.35;27.85;;;0.60;99.90;;;;;;5037854;28;20206;-87
2022/01/14 06:21:46;;;;;;;47.60;26.50;;;0.60;99.90;;;;;;5028922;28;20502;-87
2022/01/14 06:24:11;;;;;;;43.80;26.05;;;0.50;99.90;;;;;;5028702;28;20047;-88
2022/01/14 06:26:37;;;;;;;48.58;28.52;;;0.50;99.90;;;;;;5029155;28;20033;-88
2022/01/14 06:29:02;;;;;;;45.95;27.35;;;0.50;99.90;;;;;;5029429;28;20030;-88
2022/01/14 06:31:28;;;;;;;48.30;28.05;;;0.50;99.90;;;;;;5028301;28;20200;-87
2022/01/14 06:33:54;;;;;;;52.47;29.17;;;0.50;99.90;;;;;;5027872;28;20509;-88
2022/01/14 06:36:20;;;;;;;48.83;28.55;;;0.50;99.90;;;;;;5027431;28;20057;-88
2022/01/14 06:38:45;;;;;;;47.78;28.10;;;0.50;99.90;;;;;;5029682;28;20489;-88
2022/01/14 06:41:11;;;;;;;52.85;29.42;;;0.50;99.90;;;;;;5032063;28;20029;-87
2022/01/14 06:43:37;;;;;;;53.90;29.77;;;0.40;99.90;;;;;;5027885;28;20108;-88
2022/01/14 06:46:02;;;;;;;52.80;29.02;;;0.40;99.90;;;;;;5027922;28;20087;-87
2022/01/14 06:48:28;;;;;;;48.75;28.98;;;0.40;99.90;;;;;;5029300;28;20386;-87
2022/01/14 06:50:55;;;;;;;47.88;28.85;;;0.30;99.90;;;;;;5027682;28;20025;-88
2022/01/14 06:53:20;;;;;;;49.05;28.67;;;0.30;99.90;;;;;;5032694;28;20580;-87
2022/01/14 06:55:46;;;;;;;46.08;27.80;;;0.30;99.90;;;;;;5029228;28;20129;-88
2022/01/14 06:58:12;;;;;;;50.53;27.50;;;0.30;99.90;;;;;;5029088;28;20060;-88
2022/01/14 07:00:37;;;;;;;48.15;27.55;;;0.30;99.90;;;;;;5028272;28;20037;-88
2022/01/14 07:03:03;;;;;;;45.83;27.27;;;0.30;99.90;;;;;;5028745;28;20029;-88
2022/01/14 07:05:29;;;;;;;46.97;27.48;;;0.30;99.90;;;;;;5034794;28;20025;-88
2022/01/14 07:07:55;;;;;;;48.03;26.88;;;0.30;99.90;;;;;;5032556;28;20034;-88
2022/01/14 07:10:21;;;;;;;47.13;27.60;;;0.30;99.90;;;;;;5036145;28;20406;-88
2022/01/14 07:12:48;;;;;;;46.97;27.70;;;0.30;99.90;;;;;;5032682;28;20033;-89
2022/01/14 07:15:15;;;;;;;47.15;25.90;;;0.20;99.90;;;;;;5035352;28;20605;-85
2022/01/14 07:17:42;;;;;;;50.03;28.77;;;0.10;99.90;;;;;;5030859;28;20108;-87
2022/01/14 07:20:12;;;;;;;46.75;27.42;;;0.00;99.90;;;;;;5031000;28;20033;-86
2022/01/14 07:22:40;;;;;;;46.50;28.38;;;0.10;99.90;;;;;;5030693;28;20048;-87
2022/01/14 07:25:07;;;;;;;46.78;27.92;;;0.00;99.90;;;;;;5032083;28;20122;-87
2022/01/14 07:27:32;;;;;;;48.13;27.42;;;0.00;99.90;;;;;;5032470;28;20029;-87
2022/01/14 07:29:58;;;;;;;51.55;27.83;;;-0.10;99.90;;;;;;5032377;28;20525;-87
2022/01/14 07:32:25;;;;;;;49.53;28.98;;;-0.10;99.90;;;;;;5030864;28;20025;-87
2022/01/14 07:34:50;;;;;;;55.50;31.27;;;-0.10;99.90;;;;;;5030205;28;20092;-87
2022/01/14 07:37:18;;;;;;;55.15;30.02;;;-0.10;99.90;;;;;;5028565;28;20531;-86
2022/01/14 07:39:44;;;;;;;59.30;29.85;;;-0.10;99.90;;;;;;5028820;28;20025;-86
2022/01/14 07:42:10;;;;;;;50.55;29.38;;;-0.10;99.90;;;;;;5030541;28;20018;-86
2022/01/14 07:44:36;;;;;;;51.15;27.52;;;-0.10;99.90;;;;;;5029501;28;20040;-87
2022/01/14 07:47:01;;;;;;;49.50;28.33;;;-0.10;99.90;;;;;;5030941;28;20428;-87
2022/01/14 07:49:27;;;;;;;47.67;26.40;;;-0.20;99.90;;;;;;5031914;28;20518;-87
2022/01/14 07:51:53;;;;;;;50.58;27.67;;;-0.20;99.90;;;;;;5031724;28;20053;-86
2022/01/14 07:54:19;;;;;;;49.03;27.75;;;-0.30;99.90;;;;;;5031722;28;20044;-86
2022/01/14 07:56:48;;;;;;;53.30;27.10;;;-0.50;99.90;;;;;;5030296;28;20409;-87
2022/01/14 07:59:16;;;;;;;48.85;26.80;;;-0.60;99.90;;;;;;5030226;28;20333;-86
2022/01/14 08:01:44;;;;;;;47.83;27.33;;;-0.70;99.90;;;;;;5032156;28;20026;-87
2022/01/14 08:04:10;;;;;;;63.88;34.88;;;-0.60;99.90;;;;;;5031442;28;20445;-87
2022/01/14 08:06:43;;;;;;;84.65;40.47;;;-0.50;99.90;;;;;;5031417;28;20551;-86
2022/01/14 08:09:09;;;;;;;49.83;27.55;;;-0.50;99.90;;;;;;5031461;28;20060;-87
2022/01/14 08:11:35;;;;;;;69.22;36.55;;;-0.60;99.90;;;;;;5031499;28;20525;-87
2022/01/14 08:14:01;;;;;;;66.65;31.92;;;-0.50;99.90;;;;;;5031023;28;20512;-87
2022/01/14 08:16:26;;;;;;;48.28;27.85;;;-0.60;99.90;;;;;;5031340;28;20033;-87
2022/01/14 08:18:52;;;;;;;48.63;25.73;;;-0.50;99.90;;;;;;5029852;28;20455;-87
2022/01/14 08:21:18;;;;;;;58.65;27.60;;;-0.50;99.90;;;;;;5030775;28;20068;-86
2022/01/14 08:23:43;;;;;;;46.20;24.60;;;-0.40;99.90;;;;;;5029843;28;20026;-87
2022/01/14 08:26:09;;;;;;;50.33;26.15;;;-0.30;99.90;;;;;;5031231;28;20033;-87
2022/01/14 08:28:35;;;;;;;43.60;26.33;;;-0.20;99.90;;;;;;5031129;28;20026;-87
2022/01/14 08:31:00;;;;;;;54.20;28.48;;;-0.20;99.90;;;;;;5029887;28;20026;-87
2022/01/14 08:33:26;;;;;;;55.83;29.48;;;-0.20;99.90;;;;;;5029582;28;20504;-87
2022/01/14 08:35:52;;;;;;;47.75;26.10;;;-0.20;99.90;;;;;;5030682;28;20103;-87
2022/01/14 08:38:18;;;;;;;61.50;32.05;;;-0.20;99.90;;;;;;5030717;28;20021;-87
2022/01/14 08:40:43;;;;;;;54.28;26.60;;;-0.20;99.90;;;;;;5029393;28;20432;-87
2022/01/14 08:43:09;;;;;;;45.97;21.83;;;-0.20;99.90;;;;;;5029381;28;20064;-87
2022/01/14 08:45:35;;;;;;;41.13;22.13;;;-0.20;99.90;;;;;;5029438;28;20026;-86
2022/01/14 08:48:01;;;;;;;43.67;21.70;;;-0.30;99.90;;;;;;5029484;28;20117;-87
2022/01/14 08:50:31;;;;;;;38.83;21.17;;;-0.20;99.90;;;;;;5029498;28;20544;-86
2022/01/14 08:52:59;;;;;;;48.70;26.25;;;-0.10;99.90;;;;;;5030631;28;20093;-87
2022/01/14 08:55:25;;;;;;;50.00;23.25;;;-0.10;99.90;;;;;;5029346;28;20060;-87
2022/01/14 08:57:51;;;;;;;46.88;25.60;;;0.00;99.90;;;;;;5030886;28;20025;-87
2022/01/14 09:00:18;;;;;;;49.35;22.17;;;0.00;99.90;;;;;;5030379;28;20112;-86
2022/01/14 09:02:44;;;;;;;60.30;22.48;;;0.10;99.90;;;;;;5030375;28;20490;-86
2022/01/14 09:05:11;;;;;;;41.45;22.65;;;0.10;99.90;;;;;;5030756;28;20033;-87
2022/01/14 09:07:37;;;;;;;61.88;31.85;;;0.10;99.90;;;;;;5030170;28;20018;-86
2022/01/14 09:10:05;;;;;;;62.35;26.52;;;0.20;99.90;;;;;;5024085;28;20037;-87
2022/01/14 09:12:30;;;;;;;44.88;25.83;;;0.20;99.90;;;;;;5022612;28;20045;-86
2022/01/14 09:14:56;;;;;;;44.65;25.30;;;0.10;99.90;;;;;;5030517;28;20056;-86
2022/01/14 09:17:22;;;;;;;63.33;32.42;;;0.30;99.90;;;;;;5030270;28;20532;-86
2022/01/14 09:19:47;;;;;;;51.38;27.13;;;0.40;99.90;;;;;;5028956;28;20036;-87
2022/01/14 09:22:17;;;;;;;43.85;23.50;;;0.40;99.90;;;;;;5028343;28;20397;-87
2022/01/14 09:24:47;;;;;;;47.40;26.35;;;0.40;99.90;;;;;;5030234;28;20397;-87
2022/01/14 09:27:14;;;;;;;45.35;25.33;;;0.50;99.90;;;;;;5029523;28;20032;-87
2022/01/14 09:29:40;;;;;;;55.20;26.00;;;0.50;99.90;;;;;;5030465;28;20052;-87
2022/01/14 09:32:07;;;;;;;68.75;34.50;;;0.60;99.90;;;;;;5030013;28;20068;-87
2022/01/14 09:34:37;;;;;;;57.35;30.45;;;0.40;99.90;;;;;;5030196;28;20119;-87
2022/01/14 09:37:03;;;;;;;50.95;26.17;;;0.50;99.90;;;;;;5029604;28;20035;-87
2022/01/14 09:39:31;;;;;;;47.42;25.17;;;0.70;99.90;;;;;;5029865;28;20096;-87
2022/01/14 09:41:58;;;;;;;39.22;21.80;;;0.70;99.90;;;;;;5029652;28;20548;-87
2022/01/14 09:44:23;;;;;;;40.83;22.95;;;0.70;99.90;;;;;;5028427;28;20485;-87
2022/01/14 09:46:50;;;;;;;43.22;22.52;;;0.80;99.90;;;;;;5028729;28;20100;-87
2022/01/14 09:49:16;;;;;;;39.42;23.13;;;0.90;99.90;;;;;;5029813;28;20032;-87
2022/01/14 09:51:42;;;;;;;38.25;22.85;;;0.80;99.90;;;;;;5029632;28;20116;-87
2022/01/14 09:54:10;;;;;;;40.85;21.92;;;0.80;99.90;;;;;;5029984;28;20042;-87
2022/01/14 09:56:37;;;;;;;37.47;21.75;;;0.80;99.90;;;;;;5029982;28;20056;-87
2022/01/14 09:59:05;;;;;;;39.78;22.58;;;0.90;99.90;;;;;;5028422;28;20117;-87
2022/01/14 10:01:42;;;;;;;43.88;23.52;;;0.90;99.90;;;;;;5029576;28;20021;-87
2022/01/14 10:04:16;;;;;;;47.53;23.15;;;0.90;99.90;;;;;;5027849;28;20410;-87
2022/01/14 10:06:44;;;;;;;48.75;23.83;;;0.90;99.90;;;;;;5027945;28;20080;-86
2022/01/14 10:09:23;;;;;;;47.75;24.67;;;0.90;99.90;;;;;;5029553;28;20083;-87
2022/01/14 10:12:15;;;;;;;44.88;23.83;;;0.90;99.90;;;;;;5029697;28;20481;-87
2022/01/14 10:14:43;;;;;;;36.55;20.48;;;0.90;99.90;;;;;;5026279;28;20045;-87
2022/01/14 10:17:11;;;;;;;33.17;19.70;;;0.80;99.90;;;;;;5028314;28;20060;-87
2022/01/14 10:19:43;;;;;;;36.17;20.70;;;0.80;99.90;;;;;;5029378;28;20053;-87
2022/01/14 10:22:27;;;;;;;36.95;20.10;;;0.80;99.90;;;;;;5028930;28;20552;-87
2022/01/14 10:24:59;;;;;;;29.60;17.95;;;1.00;99.90;;;;;;5027947;28;20127;-87
2022/01/14 10:27:37;;;;;;;28.02;17.40;;;1.10;99.90;;;;;;5028002;28;20026;-87
2022/01/14 10:30:32;;;;;;;30.80;18.15;;;1.20;99.90;;;;;;5028186;28;20030;-88
2022/01/14 10:33:09;;;;;;;28.55;16.60;;;1.30;99.90;;;;;;5027924;28;20103;-87
2022/01/14 10:35:41;;;;;;;31.33;18.17;;;1.50;99.90;;;;;;5028975;28;20044;-87
2022/01/14 10:38:10;;;;;;;29.88;17.30;;;1.40;99.90;;;;;;5029792;28;20026;-87
2022/01/14 10:40:41;;;;;;;30.77;18.17;;;1.60;99.90;;;;;;5031802;28;20029;-87
2022/01/14 10:43:12;;;;;;;25.08;14.23;;;1.60;99.90;;;;;;5031557;28;20032;-88
2022/01/14 10:45:38;;;;;;;26.52;14.43;;;1.50;99.90;;;;;;5032805;28;20022;-87
2022/01/14 10:48:28;;;;;;;26.20;16.20;;;1.50;99.90;;;;;;5032819;28;20030;-87
2022/01/14 10:50:55;;;;;;;23.95;13.75;;;1.40;99.90;;;;;;5032659;28;20021;-88
2022/01/14 10:53:39;;;;;;;24.85;14.65;;;1.40;99.90;;;;;;5031698;28;20029;-88
2022/01/14 10:56:08;;;;;;;25.17;14.48;;;1.40;99.90;;;;;;5031666;28;20522;-87
2022/01/14 10:58:36;;;;;;;21.63;13.32;;;1.40;99.90;;;;;;5041926;28;20465;-88
2022/01/14 11:01:23;;;;;;;23.08;13.88;;;1.40;99.90;;;;;;5032843;28;20018;-87
2022/01/14 11:03:57;;;;;;;24.20;14.18;;;1.50;99.90;;;;;;5032246;28;20129;-87
2022/01/14 11:06:29;;;;;;;23.58;13.80;;;1.50;99.90;;;;;;5032264;28;20028;-87
2022/01/14 11:09:04;;;;;;;23.33;14.30;;;1.50;99.90;;;;;;5031273;28;20035;-87
2022/01/14 11:11:36;;;;;;;27.38;15.55;;;1.50;99.90;;;;;;5032640;28;20025;-87
2022/01/14 11:14:03;;;;;;;26.88;16.38;;;1.50;99.90;;;;;;5028838;28;20037;-87
2022/01/14 11:16:29;;;;;;;25.67;15.32;;;1.50;99.90;;;;;;5031258;28;20023;-87
2022/01/14 11:19:00;;;;;;;26.08;16.67;;;1.60;99.90;;;;;;5032310;28;20030;-87
2022/01/14 11:24:33;;;;;;;21.33;13.52;;;2.10;99.90;;;;;;5009554;28;20034;-87
2022/01/14 11:27:25;;;;;;;22.92;14.00;;;2.00;99.90;;;;;;5028148;28;20034;-87
2022/01/14 11:29:57;;;;;;;22.17;13.23;;;2.20;99.90;;;;;;5031136;28;20629;-87
2022/01/14 11:32:24;;;;;;;24.83;14.43;;;2.30;99.90;;;;;;5030989;28;20033;-87
2022/01/14 11:34:51;;;;;;;27.60;14.38;;;2.30;99.90;;;;;;5033498;28;20041;-87
2022/01/14 11:37:28;;;;;;;25.15;14.43;;;2.40;99.90;;;;;;5038199;28;20021;-87
2022/01/14 11:40:04;;;;;;;26.88;15.63;;;2.40;99.90;;;;;;5032414;28;20122;-87
2022/01/14 11:42:50;;;;;;;31.48;18.10;;;2.60;99.90;;;;;;5030464;28;20025;-87
2022/01/14 11:45:42;;;;;;;30.48;17.75;;;2.60;99.90;;;;;;5029899;28;20030;-87
2022/01/14 11:48:28;;;;;;;28.20;16.98;;;2.50;99.90;;;;;;5030320;28;20022;-85
2022/01/14 11:51:03;;;;;;;27.35;15.75;;;2.40;99.90;;;;;;5031158;28;20103;-85
2022/01/14 11:53:38;;;;;;;31.15;17.73;;;2.30;99.90;;;;;;5031812;28;20402;-85
2022/01/14 11:56:07;;;;;;;38.00;19.02;;;2.40;99.90;;;;;;5031969;28;20506;-88
2022/01/14 11:58:33;;;;;;;32.22;16.73;;;2.50;99.90;;;;;;5026959;28;20025;-88
2022/01/14 12:00:58;;;;;;;33.22;17.80;;;2.50;99.90;;;;;;5029518;28;20553;-88
2022/01/14 12:03:26;;;;;;;48.47;22.35;;;2.40;99.90;;;;;;5030213;28;20025;-88
2022/01/14 12:05:53;;;;;;;81.90;37.22;;;2.50;99.90;;;;;;5029516;28;20300;-87
2022/01/14 12:08:43;;;;;;;32.30;18.80;;;2.70;99.90;;;;;;5030121;28;20093;-88
2022/01/14 12:11:08;;;;;;;29.70;17.27;;;2.70;99.90;;;;;;5026498;28;20052;-87
2022/01/14 12:19:08;;;;;;;28.48;16.52;;;2.90;99.90;;;;;;5031048;28;20500;-88
2022/01/14 12:21:43;;;;;;;25.23;15.30;;;2.80;99.90;;;;;;5030606;28;20021;-88
2022/01/14 12:24:14;;;;;;;23.92;15.48;;;2.90;99.90;;;;;;5030981;28;20470;-88
2022/01/14 12:27:04;;;;;;;26.10;15.68;;;2.90;99.90;;;;;;5029166;28;20567;-87
2022/01/14 12:29:44;;;;;;;25.95;16.42;;;3.00;99.90;;;;;;5022085;28;20429;-88
2022/01/14 12:32:17;;;;;;;28.23;16.70;;;3.00;99.90;;;;;;5030775;28;20113;-88
2022/01/14 12:34:55;;;;;;;31.25;19.05;;;2.80;99.90;;;;;;5028772;28;20150;-88
2022/01/14 12:37:25;;;;;;;26.02;16.23;;;2.80;99.90;;;;;;5023588;28;20430;-88
2022/01/14 12:39:52;;;;;;;26.40;15.45;;;2.80;99.90;;;;;;5029306;28;20419;-87
2022/01/14 12:42:19;;;;;;;26.95;15.32;;;2.90;99.90;;;;;;5029464;28;20402;-90
2022/01/14 12:44:47;;;;;;;25.77;16.38;;;3.00;99.90;;;;;;5030066;28;20025;-90
2022/01/14 12:47:20;;;;;;;24.27;15.07;;;3.20;99.90;;;;;;5030793;28;20088;-88
2022/01/14 12:49:47;;;;;;;23.00;15.07;;;3.30;99.90;;;;;;5030403;28;20430;-86
2022/01/14 12:52:16;;;;;;;23.70;15.70;;;3.30;99.90;;;;;;5029919;28;20021;-86
2022/01/14 12:54:44;;;;;;;30.73;17.80;;;3.20;99.90;;;;;;5028550;28;20406;-88
2022/01/14 12:57:17;;;;;;;31.90;18.40;;;3.30;99.90;;;;;;5028758;28;20049;-87
2022/01/14 12:59:46;;;;;;;26.65;17.48;;;3.40;99.90;;;;;;5029767;28;20028;-88
2022/01/14 13:02:30;;;;;;;26.02;15.93;;;3.30;99.90;;;;;;5030104;28;20426;-90
2022/01/14 13:05:06;;;;;;;24.30;14.93;;;3.40;99.90;;;;;;5031743;28;20160;-91
2022/01/14 13:07:34;;;;;;;22.05;13.48;;;3.40;99.90;;;;;;5029696;28;20037;-89
2022/01/14 13:10:00;;;;;;;28.13;15.75;;;3.40;99.90;;;;;;5030251;28;20020;-89
2022/01/14 13:12:32;;;;;;;25.15;15.50;;;3.40;99.90;;;;;;5030206;28;20441;-77
2022/01/14 13:15:04;;;;;;;27.65;16.55;;;3.30;99.90;;;;;;5031664;28;20041;-76
2022/01/14 13:17:40;;;;;;;25.50;15.25;;;3.30;99.90;;;;;;5029511;28;20033;-76
2022/01/14 13:20:12;;;;;;;28.65;14.95;;;3.40;99.90;;;;;;5029728;28;20025;-76